createdAt,value
2022-11-09T00:01:10.708Z,101640.53
2022-11-09T00:06:38.825Z,101643.63
2022-11-09T00:12:04.964Z,101651.31
2022-11-09T00:17:29.301Z,101648.34
2022-11-09T00:23:00.003Z,101651.72
2022-11-09T00:28:28.556Z,101642.97
2022-11-09T00:33:55.667Z,101638.72
2022-11-09T00:39:20.477Z,101642.00
2022-11-09T00:44:43.946Z,101646.78
2022-11-09T00:50:07.769Z,101643.00
2022-11-09T00:55:38.512Z,101629.47
2022-11-09T01:01:11.236Z,101641.59
2022-11-09T01:06:34.429Z,101627.97
2022-11-09T01:12:06.617Z,101631.72
2022-11-09T01:17:35.191Z,101637.09
2022-11-09T01:23:04.411Z,101636.56
2022-11-09T01:28:35.234Z,101644.19
2022-11-09T01:33:59.860Z,101659.84
2022-11-09T01:39:24.823Z,101659.47
2022-11-09T01:45:06.023Z,101663.56
2022-11-09T01:50:40.747Z,101675.13
2022-11-09T01:56:14.980Z,101676.41
2022-11-09T02:01:46.806Z,101672.59
2022-11-09T02:07:15.742Z,101687.84
2022-11-09T02:12:45.869Z,101674.72
2022-11-09T02:18:16.060Z,101669.06
2022-11-09T02:23:47.465Z,101673.31
2022-11-09T02:29:26.061Z,101683.19
2022-11-09T02:34:48.994Z,101679.94
2022-11-09T02:40:22.061Z,101676.97
2022-11-09T02:45:51.660Z,101670.50
2022-11-09T02:51:14.947Z,101662.31
2022-11-09T02:56:43.013Z,101664.78
2022-11-09T03:02:06.807Z,101673.22
2022-11-09T03:07:30.415Z,101675.56
2022-11-09T03:13:00.828Z,101667.31
2022-11-09T03:18:25.002Z,101673.56
2022-11-09T03:23:54.011Z,101686.84
2022-11-09T03:29:25.225Z,101682.66
2022-11-09T03:34:54.709Z,101664.59
2022-11-09T03:40:23.647Z,101675.88
2022-11-09T03:45:54.362Z,101672.78
2022-11-09T03:51:23.720Z,101679.84
2022-11-09T03:56:48.784Z,101688.59
2022-11-09T04:02:13.748Z,101699.06
2022-11-09T04:07:47.863Z,101704.84
2022-11-09T04:13:11.442Z,101702.44
2022-11-09T04:18:41.356Z,101716.25
2022-11-09T04:24:06.220Z,101717.09
2022-11-09T04:29:34.539Z,101715.09
2022-11-09T04:34:59.359Z,101723.28
2022-11-09T04:40:31.340Z,101730.06
2022-11-09T04:46:02.065Z,101733.44
2022-11-09T04:51:31.976Z,101734.88
2022-11-09T04:56:56.457Z,101741.06
2022-11-09T05:02:25.708Z,101737.94
2022-11-09T05:07:51.436Z,101751.34
2022-11-09T05:13:15.126Z,101752.34
2022-11-09T05:18:43.614Z,101757.41
2022-11-09T05:24:14.237Z,101757.41
2022-11-09T05:29:43.003Z,101760.50
2022-11-09T05:35:12.032Z,101777.13
2022-11-09T05:40:37.989Z,101770.75
2022-11-09T05:46:08.343Z,101784.13
2022-11-09T05:51:37.272Z,101785.56
2022-11-09T05:57:07.884Z,101784.53
2022-11-09T06:02:36.407Z,101783.44
2022-11-09T06:08:06.739Z,101790.06
2022-11-09T06:13:37.196Z,101796.00
2022-11-09T06:19:05.326Z,101794.75
2022-11-09T06:24:34.544Z,101794.50
2022-11-09T06:30:04.109Z,101797.06
2022-11-09T06:35:32.760Z,101793.69
2022-11-09T06:40:56.913Z,101789.47
2022-11-09T06:46:27.177Z,101786.53
2022-11-09T06:51:54.601Z,101777.75
2022-11-09T06:57:23.906Z,101789.38
2022-11-09T07:02:54.478Z,101788.81
2022-11-09T07:08:23.785Z,101787.03
2022-11-09T07:13:57.264Z,101796.69
2022-11-09T07:19:29.632Z,101804.78
2022-11-09T07:24:52.669Z,101793.88
2022-11-09T07:30:21.890Z,101800.28
2022-11-09T07:35:52.004Z,101803.78
2022-11-09T07:41:15.863Z,101811.00
2022-11-09T07:46:39.127Z,101811.28
2022-11-09T07:52:04.815Z,101805.06
2022-11-09T07:57:28.154Z,101817.50
2022-11-09T08:02:51.393Z,101818.91
2022-11-09T08:08:17.287Z,101824.00
2022-11-09T08:13:44.821Z,101825.94
2022-11-09T08:19:11.699Z,101841.22
2022-11-09T08:24:44.197Z,101837.28
2022-11-09T08:30:08.852Z,101834.41
2022-11-09T08:35:39.710Z,101845.72
2022-11-09T08:41:09.270Z,101834.97
2022-11-09T08:46:40.973Z,101827.69
2022-11-09T08:52:04.666Z,101830.50
2022-11-09T08:57:31.810Z,101822.31
2022-11-09T09:08:57.500Z,101829.66
2022-11-09T09:14:26.972Z,101835.34
2022-11-09T09:19:56.044Z,101839.56
2022-11-09T09:25:20.803Z,101836.56
2022-11-09T09:30:52.587Z,101813.41
2022-11-09T09:36:21.881Z,101820.88
2022-11-09T09:41:54.168Z,101823.78
2022-11-09T09:47:23.659Z,101825.56
2022-11-09T09:53:18.075Z,101827.34
2022-11-09T09:58:50.711Z,101821.56
2022-11-09T10:04:24.671Z,101819.47
2022-11-09T10:10:11.336Z,101822.66
2022-11-09T10:15:46.193Z,101812.66
2022-11-09T10:21:30.347Z,101807.75
2022-11-09T10:27:01.844Z,101813.34
2022-11-09T10:32:33.465Z,101808.06
2022-11-09T10:38:05.238Z,101811.59
2022-11-09T10:43:34.752Z,101807.59
2022-11-09T10:49:23.249Z,101807.59
2022-11-09T10:55:30.651Z,101805.75
2022-11-09T11:01:22.320Z,101796.25
2022-11-09T11:07:20.757Z,101795.31
2022-11-09T11:13:27.847Z,101793.88
2022-11-09T11:19:33.075Z,101780.78
2022-11-09T11:30:30.484Z,101771.16
2022-11-09T11:36:25.946Z,101769.13
2022-11-09T11:42:30.453Z,101780.34
2022-11-09T11:48:39.113Z,101780.81
2022-11-09T11:54:38.957Z,101781.34
2022-11-09T12:00:26.827Z,101778.75
2022-11-09T12:06:31.770Z,101777.59
2022-11-09T12:12:31.750Z,101774.50
2022-11-09T12:18:35.503Z,101782.13
2022-11-09T12:24:30.522Z,101768.81
2022-11-09T12:30:21.452Z,101779.75
2022-11-09T12:36:16.893Z,101780.72
2022-11-09T12:42:12.479Z,101782.97
2022-11-09T12:48:04.851Z,101792.06
2022-11-09T12:53:52.858Z,101786.69
2022-11-09T12:59:50.213Z,101793.06
2022-11-09T13:05:40.418Z,101784.72
2022-11-09T13:11:35.876Z,101790.44
2022-11-09T13:18:03.643Z,101787.69
2022-11-09T13:24:01.535Z,101784.41
2022-11-09T13:29:56.043Z,101791.66
2022-11-09T13:36:16.572Z,101791.13
2022-11-09T13:42:26.735Z,101794.81
2022-11-09T13:48:32.445Z,101793.44
2022-11-09T13:54:30.748Z,101785.03
2022-11-09T14:00:23.576Z,101796.63
2022-11-09T14:06:13.860Z,101794.09
2022-11-09T14:12:17.579Z,101791.25
2022-11-09T14:18:26.630Z,101797.78
2022-11-09T14:24:18.667Z,101806.03
2022-11-09T14:30:17.420Z,101806.31
2022-11-09T14:36:07.078Z,101806.94
2022-11-09T14:41:57.753Z,101819.28
2022-11-09T14:47:47.350Z,101816.91
2022-11-09T14:53:38.435Z,101827.66
2022-11-09T14:59:32.188Z,101818.91
2022-11-09T15:05:32.090Z,101821.19
2022-11-09T15:11:21.872Z,101829.84
2022-11-09T15:17:16.769Z,101825.06
2022-11-09T15:23:06.633Z,101828.91
2022-11-09T15:28:58.969Z,101841.97
2022-11-09T15:34:55.829Z,101851.91
2022-11-09T15:40:43.126Z,101861.25
2022-11-09T15:46:37.268Z,101858.03
2022-11-09T15:52:26.278Z,101867.81
2022-11-09T15:58:16.378Z,101865.56
2022-11-09T16:04:05.859Z,101865.00
2022-11-09T16:09:53.567Z,101871.38
2022-11-09T16:15:40.921Z,101860.47
2022-11-09T16:21:29.758Z,101869.53
2022-11-09T16:27:43.441Z,101868.09
2022-11-09T16:33:25.540Z,101874.63
2022-11-09T16:39:17.303Z,101866.84
2022-11-09T16:45:10.217Z,101869.78
2022-11-09T16:50:58.083Z,101869.94
2022-11-09T16:56:48.138Z,101865.53
2022-11-09T17:02:36.289Z,101874.31
2022-11-09T17:08:23.983Z,101866.66
2022-11-09T17:14:13.997Z,101868.06
2022-11-09T17:20:05.110Z,101855.91
2022-11-09T17:25:56.599Z,101860.13
2022-11-09T17:31:47.543Z,101853.31
2022-11-09T17:37:38.533Z,101863.47
2022-11-09T17:43:26.480Z,101863.75
2022-11-09T17:49:15.768Z,101872.44
2022-11-09T17:55:11.638Z,101866.59
2022-11-09T18:01:07.075Z,101869.81
2022-11-09T18:06:58.247Z,101877.16
2022-11-09T18:12:47.686Z,101873.50
2022-11-09T18:18:42.638Z,101884.16
2022-11-09T18:24:32.993Z,101881.97
2022-11-09T18:30:23.745Z,101890.78
2022-11-09T18:36:15.071Z,101888.81
2022-11-09T18:42:05.653Z,101895.16
2022-11-09T18:47:56.762Z,101897.56
2022-11-09T18:53:46.862Z,101904.31
2022-11-09T18:59:40.060Z,101905.69
2022-11-09T19:05:28.259Z,101914.94
2022-11-09T19:11:19.751Z,101909.34
2022-11-09T19:17:19.203Z,101908.66
2022-11-09T19:23:07.836Z,101905.47
2022-11-09T19:28:56.461Z,101900.66
2022-11-09T19:34:46.205Z,101906.28
2022-11-09T19:40:39.814Z,101905.78
2022-11-09T19:46:30.506Z,101903.84
2022-11-09T19:52:19.315Z,101907.53
2022-11-09T19:58:07.477Z,101910.19
2022-11-09T20:03:59.221Z,101909.44
2022-11-09T20:09:52.007Z,101913.38
2022-11-09T20:15:40.156Z,101906.56
2022-11-09T20:21:27.942Z,101917.84
2022-11-09T20:27:23.776Z,101904.28
2022-11-09T20:33:13.899Z,101912.50
2022-11-09T20:39:01.866Z,101907.66
2022-11-09T20:44:54.694Z,101905.13
2022-11-09T20:50:42.515Z,101916.41
2022-11-09T20:56:31.816Z,101915.94
2022-11-09T21:02:21.332Z,101909.22
2022-11-09T21:08:09.690Z,101912.03
2022-11-09T21:13:57.649Z,101914.22
2022-11-09T21:19:47.085Z,101914.25
2022-11-09T21:25:51.354Z,101920.38
2022-11-09T21:31:38.507Z,101920.13
2022-11-09T21:37:28.138Z,101916.47
2022-11-09T21:43:16.078Z,101915.03
2022-11-09T21:49:04.123Z,101905.81
2022-11-09T21:54:53.035Z,101903.88
2022-11-09T22:00:40.813Z,101903.16
2022-11-09T22:06:29.231Z,101911.91
2022-11-09T22:12:36.448Z,101917.38
2022-11-09T22:18:47.206Z,101910.81
2022-11-09T22:24:36.594Z,101903.50
2022-11-09T22:30:26.269Z,101911.16
2022-11-09T22:36:15.443Z,101910.31
2022-11-09T22:42:02.710Z,101909.97
2022-11-09T22:47:52.061Z,101917.75
2022-11-09T22:53:39.728Z,101921.00
2022-11-09T22:59:27.732Z,101930.59
2022-11-09T23:05:17.109Z,101926.59
2022-11-09T23:11:05.252Z,101928.69
2022-11-09T23:16:53.495Z,101928.44
2022-11-09T23:22:42.005Z,101931.22
2022-11-09T23:28:29.687Z,101935.72
2022-11-09T23:34:17.438Z,101931.59
2022-11-09T23:40:07.803Z,101925.97
2022-11-09T23:45:57.109Z,101926.97
2022-11-09T23:51:44.611Z,101922.09
2022-11-09T23:57:34.105Z,101927.19
